createdAt,value
2022-08-20T07:23:56.043Z,20.63
2022-08-20T07:24:56.034Z,20.68
2022-08-20T07:25:56.007Z,20.75
2022-08-20T07:26:56.990Z,20.61
2022-08-20T07:27:55.964Z,20.60
2022-08-20T07:28:55.951Z,20.68
2022-08-20T07:29:55.989Z,20.69
2022-08-20T07:30:57.617Z,20.76
2022-08-20T07:31:55.948Z,20.75
2022-08-20T07:32:56.775Z,20.63
2022-08-20T07:33:55.882Z,20.76
2022-08-20T07:34:57.229Z,20.76
2022-08-20T07:35:55.876Z,20.71
2022-08-20T07:36:55.906Z,20.71
2022-08-20T07:37:56.191Z,20.68
2022-08-20T07:38:56.894Z,20.76
2022-08-20T07:39:55.888Z,20.91
2022-08-20T07:40:56.638Z,20.91
2022-08-20T07:41:56.589Z,20.94
2022-08-20T07:42:55.935Z,20.94
2022-08-20T07:43:56.169Z,20.98
2022-08-20T07:44:56.640Z,20.83
2022-08-20T07:45:58.834Z,20.75
2022-08-20T07:46:56.174Z,20.79
2022-08-20T07:47:55.721Z,20.81
2022-08-20T07:48:55.716Z,20.79
2022-08-20T07:49:55.698Z,20.71
2022-08-20T07:50:55.690Z,20.72
2022-08-20T07:51:55.694Z,20.73
2022-08-20T07:52:55.832Z,20.69
2022-08-20T07:53:55.666Z,20.69
2022-08-20T07:54:55.637Z,20.69
2022-08-20T07:55:58.809Z,20.78
2022-08-20T07:56:55.644Z,20.76
2022-08-20T07:57:56.149Z,20.72
2022-08-20T07:58:55.721Z,20.83
2022-08-20T07:59:55.581Z,20.94
2022-08-20T08:00:55.611Z,20.93
2022-08-20T08:01:55.572Z,21.05
2022-08-20T08:02:56.417Z,21.08
2022-08-20T08:03:55.542Z,21.16
2022-08-20T08:04:55.535Z,21.22
2022-08-20T08:05:55.526Z,21.19
2022-08-20T08:06:55.517Z,21.22
2022-08-20T08:07:55.542Z,21.27
2022-08-20T08:08:55.497Z,21.31
2022-08-20T08:09:55.504Z,21.33
2022-08-20T08:10:55.468Z,21.34
2022-08-20T08:11:55.463Z,21.34
2022-08-20T08:12:55.556Z,21.48
2022-08-20T08:13:55.443Z,21.49
2022-08-20T08:14:55.710Z,21.42
2022-08-20T08:15:55.434Z,21.34
2022-08-20T08:16:58.151Z,21.26
2022-08-20T08:17:55.417Z,21.26
2022-08-20T08:18:56.465Z,21.21
2022-08-20T08:20:02.144Z,21.24
2022-08-20T08:20:55.361Z,21.22
2022-08-20T08:21:56.165Z,21.33
2022-08-20T08:22:55.442Z,21.24
2022-08-20T08:23:55.345Z,21.24
2022-08-20T08:24:56.874Z,21.40
2022-08-20T08:25:55.348Z,21.34
2022-08-20T08:26:55.290Z,21.37
2022-08-20T08:27:55.345Z,21.36
2022-08-20T08:28:55.275Z,21.33
2022-08-20T08:29:55.695Z,21.36
2022-08-20T08:30:55.270Z,21.55
2022-08-20T08:31:55.253Z,21.46
2022-08-20T08:32:55.324Z,21.46
2022-08-20T08:33:55.232Z,21.67
2022-08-20T08:34:55.203Z,21.64
2022-08-20T08:35:55.218Z,21.64
2022-08-20T08:36:55.220Z,21.59
2022-08-20T08:37:55.188Z,21.63
2022-08-20T08:38:55.168Z,21.74
2022-08-20T08:39:55.266Z,21.73
2022-08-20T08:40:57.583Z,21.61
2022-08-20T08:41:56.134Z,21.71
2022-08-20T08:42:55.367Z,21.75
2022-08-20T08:43:55.107Z,21.56
2022-08-20T08:44:55.135Z,21.43
2022-08-20T08:45:55.087Z,21.37
2022-08-20T08:46:55.099Z,21.38
2022-08-20T08:47:55.062Z,21.38
2022-08-20T08:48:57.128Z,21.31
2022-08-20T08:49:55.037Z,21.19
2022-08-20T08:50:55.023Z,21.09
2022-08-20T08:51:55.213Z,21.05
2022-08-20T08:52:55.067Z,21.05
2022-08-20T08:53:54.997Z,21.12
2022-08-20T08:54:54.986Z,21.12
2022-08-20T08:55:54.972Z,21.19
2022-08-20T08:56:54.968Z,21.03
2022-08-20T08:57:55.195Z,21.11
2022-08-20T08:58:55.677Z,21.18
2022-08-20T09:00:03.512Z,21.19
2022-08-20T09:00:57.581Z,21.19
2022-08-20T09:01:57.527Z,21.15
2022-08-20T09:02:55.089Z,21.18
2022-08-20T09:03:54.924Z,21.18
2022-08-20T09:04:55.653Z,21.16
2022-08-20T09:05:54.873Z,21.16
2022-08-20T09:06:55.667Z,21.26
2022-08-20T09:07:54.846Z,21.24
2022-08-20T09:08:54.862Z,21.26
2022-08-20T09:09:54.833Z,21.28
2022-08-20T09:10:54.824Z,21.31
2022-08-20T09:11:54.816Z,21.33
2022-08-20T09:12:54.813Z,21.36
2022-08-20T09:13:57.652Z,21.30
2022-08-20T09:14:54.801Z,21.43
2022-08-20T09:15:54.789Z,21.37
2022-08-20T09:16:54.751Z,21.43
2022-08-20T09:18:01.685Z,21.37
2022-08-20T09:18:54.729Z,21.37
2022-08-20T09:19:54.724Z,21.48
2022-08-20T09:20:57.666Z,21.51
2022-08-20T09:21:54.725Z,21.37
2022-08-20T09:22:54.685Z,21.33
2022-08-20T09:23:55.685Z,21.51
2022-08-20T09:24:54.700Z,21.49
2022-08-20T09:25:54.658Z,21.49
2022-08-20T09:26:54.645Z,21.63
2022-08-20T09:27:55.154Z,21.77
2022-08-20T09:28:55.668Z,21.83
2022-08-20T09:29:54.642Z,22.04
2022-08-20T09:30:54.609Z,22.05
2022-08-20T09:31:54.617Z,22.05
2022-08-20T09:32:54.573Z,22.06
2022-08-20T09:33:57.162Z,22.15
2022-08-20T09:34:54.566Z,22.19
2022-08-20T09:35:55.156Z,22.14
2022-08-20T09:36:54.573Z,22.24
2022-08-20T09:37:54.548Z,22.29
2022-08-20T09:38:54.518Z,22.26
2022-08-20T09:39:54.583Z,22.33
2022-08-20T09:40:54.493Z,22.31
2022-08-20T09:41:54.485Z,22.49
2022-08-20T09:42:54.619Z,22.51
2022-08-20T09:43:54.688Z,22.59
2022-08-20T09:44:55.169Z,22.60
2022-08-20T09:45:54.437Z,22.59
2022-08-20T09:46:54.443Z,22.59
2022-08-20T09:47:56.490Z,22.63
2022-08-20T09:48:55.430Z,22.78
2022-08-20T09:49:54.401Z,22.88
2022-08-20T09:50:57.169Z,22.88
2022-08-20T09:51:54.389Z,23.01
2022-08-20T09:52:54.685Z,23.15
2022-08-20T09:53:54.379Z,23.26
2022-08-20T09:54:54.373Z,23.47
2022-08-20T09:55:57.164Z,23.62
2022-08-20T09:56:55.162Z,23.57
2022-08-20T09:58:01.169Z,23.62
2022-08-20T09:58:54.333Z,23.64
2022-08-20T09:59:54.284Z,23.68
2022-08-20T10:00:54.283Z,23.77
2022-08-20T10:01:55.233Z,23.75
2022-08-20T10:02:54.258Z,23.81
2022-08-20T10:04:01.191Z,24.08
2022-08-20T10:05:01.800Z,24.24
2022-08-20T10:05:54.258Z,24.23
2022-08-20T10:06:55.216Z,24.33
2022-08-20T10:07:55.171Z,24.53
2022-08-20T10:08:55.159Z,24.39
2022-08-20T10:09:55.177Z,24.33
2022-08-20T10:10:54.168Z,24.14
2022-08-20T10:11:54.177Z,24.14
2022-08-20T10:13:00.668Z,24.16
2022-08-20T10:14:00.667Z,24.24
2022-08-20T10:14:54.120Z,24.24
2022-08-20T10:15:54.116Z,24.30
2022-08-20T10:16:54.191Z,24.19
2022-08-20T10:17:56.770Z,23.97
2022-08-20T10:18:54.676Z,23.94
2022-08-20T10:19:54.063Z,23.60
2022-08-20T10:20:54.209Z,23.53
2022-08-20T10:21:54.672Z,23.45
2022-08-20T10:22:54.066Z,23.49
2022-08-20T10:23:54.668Z,23.37
2022-08-20T10:24:54.686Z,23.37
2022-08-20T10:25:54.000Z,23.23
2022-08-20T10:26:54.012Z,23.14
2022-08-20T10:27:54.209Z,23.26
2022-08-20T10:28:53.978Z,23.19
2022-08-20T10:29:56.674Z,23.26
2022-08-20T10:30:53.989Z,23.39
2022-08-20T10:31:54.214Z,23.32
2022-08-20T10:32:53.934Z,23.35
2022-08-20T10:33:56.671Z,23.38
2022-08-20T10:34:53.911Z,23.26
2022-08-20T10:35:59.917Z,23.16
2022-08-20T10:36:55.201Z,22.97
2022-08-20T10:37:53.876Z,22.88
2022-08-20T10:38:53.897Z,23.04
2022-08-20T10:39:56.742Z,23.06
2022-08-20T10:40:56.667Z,23.04
2022-08-20T10:41:53.839Z,23.09
2022-08-20T10:42:53.835Z,22.96
2022-08-20T10:43:53.835Z,22.89
2022-08-20T10:44:53.802Z,22.97
2022-08-20T10:45:53.836Z,23.06
2022-08-20T10:46:57.078Z,23.06
2022-08-20T10:47:53.804Z,23.22
2022-08-20T10:48:53.790Z,23.22
2022-08-20T10:49:53.753Z,23.21
2022-08-20T10:50:53.735Z,23.25
2022-08-20T10:51:54.696Z,23.25
2022-08-20T10:52:54.706Z,23.14
2022-08-20T10:53:53.711Z,23.35
2022-08-20T10:54:53.714Z,23.52
2022-08-20T10:55:53.714Z,23.79
2022-08-20T10:56:53.678Z,23.96
2022-08-20T10:57:54.182Z,24.11
2022-08-20T10:58:53.657Z,24.27
2022-08-20T10:59:54.472Z,24.64
2022-08-20T11:00:53.649Z,24.61
2022-08-20T11:01:53.680Z,24.82
2022-08-20T11:02:54.179Z,24.79
2022-08-20T11:03:54.668Z,24.82
2022-08-20T11:04:53.602Z,24.77
2022-08-20T11:05:53.625Z,24.77
2022-08-20T11:06:53.570Z,24.71
2022-08-20T11:07:56.215Z,24.90
2022-08-20T11:08:53.559Z,24.94
2022-08-20T11:10:00.215Z,25.08
2022-08-20T11:10:53.525Z,25.07
2022-08-20T11:11:53.737Z,25.04
2022-08-20T11:12:54.179Z,25.34
2022-08-20T11:13:53.491Z,25.29
2022-08-20T11:14:53.482Z,25.17
2022-08-20T11:15:56.205Z,25.48
2022-08-20T11:16:56.183Z,25.26
2022-08-20T11:17:53.475Z,25.11
2022-08-20T11:18:54.187Z,25.34
2022-08-20T11:19:53.501Z,25.30
2022-08-20T11:20:54.175Z,25.27
2022-08-20T11:22:00.195Z,25.27
2022-08-20T11:22:56.682Z,25.48
2022-08-20T11:23:53.385Z,25.41
2022-08-20T11:24:54.184Z,25.45
2022-08-20T11:25:53.368Z,25.63
2022-08-20T11:26:53.358Z,25.67
2022-08-20T11:27:54.221Z,25.64
2022-08-20T11:28:54.192Z,25.20
2022-08-20T11:29:53.342Z,25.17
2022-08-20T11:30:56.188Z,25.01
2022-08-20T11:31:54.185Z,24.83
2022-08-20T11:32:53.299Z,24.86
2022-08-20T11:33:53.302Z,24.82
2022-08-20T11:34:53.279Z,24.75
2022-08-20T11:36:08.205Z,24.51
2022-08-20T11:36:54.188Z,24.42
2022-08-20T11:37:56.389Z,24.23
2022-08-20T11:38:53.257Z,24.16
2022-08-20T11:39:53.271Z,24.04
2022-08-20T11:40:54.228Z,24.04
2022-08-20T11:41:54.902Z,24.08
2022-08-20T11:43:13.785Z,24.08
2022-08-20T11:44:17.433Z,24.08
2022-08-20T11:44:54.184Z,24.11
2022-08-20T11:45:53.177Z,24.21
2022-08-20T11:46:53.695Z,24.18
2022-08-20T11:47:53.126Z,24.15
2022-08-20T11:48:59.695Z,24.14
2022-08-20T11:49:53.142Z,24.15
2022-08-20T11:50:53.113Z,24.16
2022-08-20T11:51:59.689Z,24.02
2022-08-20T11:53:01.581Z,23.79
2022-08-20T11:53:55.691Z,23.81
2022-08-20T11:54:54.855Z,23.67
2022-08-20T11:55:53.047Z,23.68
2022-08-20T11:56:53.023Z,23.77
2022-08-20T11:57:53.059Z,23.71
2022-08-20T11:58:53.007Z,23.57
2022-08-20T11:59:53.023Z,23.62
2022-08-20T12:00:52.979Z,23.67
2022-08-20T12:02:02.730Z,23.74
2022-08-20T12:02:53.121Z,23.74
2022-08-20T12:03:52.954Z,23.57
2022-08-20T12:04:52.938Z,23.67
2022-08-20T12:05:52.939Z,23.75
2022-08-20T12:06:52.916Z,23.62
2022-08-20T12:07:52.933Z,23.50
2022-08-20T12:08:52.900Z,23.39
2022-08-20T12:09:52.882Z,23.29
2022-08-20T12:10:52.887Z,23.23
2022-08-20T12:11:52.871Z,23.19
2022-08-20T12:12:52.988Z,23.06
2022-08-20T12:13:53.702Z,22.88
2022-08-20T12:14:52.832Z,22.75
2022-08-20T12:15:53.849Z,22.63
2022-08-20T12:16:53.699Z,22.60
2022-08-20T12:17:52.823Z,22.48
2022-08-20T12:18:53.692Z,22.46
2022-08-20T12:19:52.777Z,22.56
2022-08-20T12:20:52.773Z,22.48
2022-08-20T12:21:53.703Z,22.52
2022-08-20T12:22:53.274Z,22.57
2022-08-20T12:24:00.743Z,22.57
2022-08-20T12:24:52.718Z,22.57
2022-08-20T12:25:52.706Z,22.52
2022-08-20T12:26:52.726Z,22.48
2022-08-20T12:27:53.196Z,22.54
2022-08-20T12:28:52.697Z,22.59
2022-08-20T12:29:53.206Z,22.63
2022-08-20T12:30:52.714Z,22.59
2022-08-20T12:31:53.209Z,22.59
2022-08-20T12:32:53.266Z,22.75
2022-08-20T12:33:52.624Z,22.96
2022-08-20T12:34:53.209Z,22.88
2022-08-20T12:35:55.197Z,23.03
2022-08-20T12:36:52.731Z,23.04
2022-08-20T12:37:52.581Z,23.03
2022-08-20T12:38:52.573Z,23.06
2022-08-20T12:39:52.775Z,23.23
2022-08-20T12:40:52.556Z,23.18
2022-08-20T12:41:53.212Z,23.49
2022-08-20T12:42:53.209Z,23.79
2022-08-20T12:43:55.196Z,24.11
2022-08-20T12:44:52.515Z,24.29
2022-08-20T12:45:52.510Z,24.46
2022-08-20T12:46:55.213Z,24.60
2022-08-20T12:47:52.777Z,24.79
2022-08-20T12:48:52.477Z,24.94
2022-08-20T12:49:52.477Z,25.08
2022-08-20T12:50:52.471Z,25.19
2022-08-20T12:51:52.434Z,25.27
2022-08-20T12:52:53.271Z,25.36
2022-08-20T12:53:52.441Z,25.22
2022-08-20T12:54:52.393Z,25.08
2022-08-20T12:55:52.409Z,24.94
2022-08-20T12:56:52.378Z,24.89
2022-08-20T12:57:52.374Z,24.66
2022-08-20T12:58:52.386Z,24.61
2022-08-20T12:59:52.346Z,24.04
2022-08-20T13:00:52.347Z,24.02
2022-08-20T13:01:52.360Z,23.93
2022-08-20T13:02:53.256Z,23.84
2022-08-20T13:03:52.334Z,23.71
2022-08-20T13:04:53.352Z,23.78
2022-08-20T13:05:52.307Z,23.79
2022-08-20T13:06:53.208Z,23.96
2022-08-20T13:07:52.262Z,24.34
2022-08-20T13:08:52.240Z,24.41
2022-08-20T13:09:52.234Z,24.34
2022-08-20T13:10:52.241Z,24.52
2022-08-20T13:11:52.225Z,24.45
2022-08-20T13:12:52.260Z,24.37
2022-08-20T13:13:52.277Z,24.37
2022-08-20T13:14:52.179Z,24.29
2022-08-20T13:15:52.172Z,24.19
2022-08-20T13:16:52.160Z,24.23
2022-08-20T13:17:52.145Z,24.12
2022-08-20T13:18:53.742Z,24.19
2022-08-20T13:19:52.242Z,24.14
2022-08-20T13:21:13.120Z,24.48
2022-08-20T13:21:55.155Z,24.67
2022-08-20T13:22:52.839Z,24.66
2022-08-20T13:23:52.084Z,24.75
2022-08-20T13:24:52.076Z,24.74
2022-08-20T13:25:52.073Z,24.64
2022-08-20T13:26:52.058Z,24.71
2022-08-20T13:27:54.717Z,24.59
2022-08-20T13:28:52.020Z,24.90
2022-08-20T13:29:55.174Z,25.05
2022-08-20T13:30:53.025Z,25.05
2022-08-20T13:31:52.300Z,25.17
2022-08-20T13:32:51.973Z,24.93
2022-08-20T13:33:54.027Z,24.89
2022-08-20T13:34:51.946Z,25.09
2022-08-20T13:35:53.320Z,25.09
2022-08-20T13:36:58.711Z,25.01
2022-08-20T13:37:51.940Z,24.82
2022-08-20T13:38:51.919Z,24.90
2022-08-20T13:39:52.006Z,24.63
2022-08-20T13:40:51.895Z,24.64
2022-08-20T13:41:51.912Z,24.71
2022-08-20T13:42:51.883Z,24.83
2022-08-20T13:43:51.869Z,24.68
2022-08-20T13:44:51.873Z,24.53
2022-08-20T13:45:52.721Z,24.60
2022-08-20T13:46:51.855Z,24.60
2022-08-20T13:47:52.936Z,24.37
2022-08-20T13:48:52.714Z,24.61
2022-08-20T13:49:54.739Z,24.59
2022-08-20T13:50:54.727Z,24.53
2022-08-20T13:51:52.154Z,24.49
2022-08-20T13:52:52.245Z,24.59
2022-08-20T13:53:51.747Z,24.52
2022-08-20T13:54:51.788Z,24.33
2022-08-20T13:55:51.730Z,24.49
2022-08-20T13:56:51.721Z,24.49
2022-08-20T13:57:51.714Z,24.42
2022-08-20T13:58:53.194Z,24.39
2022-08-20T13:59:52.229Z,24.46
2022-08-20T14:00:51.672Z,24.63
2022-08-20T14:01:51.667Z,24.66
2022-08-20T14:02:51.656Z,24.67
2022-08-20T14:03:51.672Z,24.94
2022-08-20T14:04:51.633Z,25.24
2022-08-20T14:05:51.633Z,25.05
2022-08-20T14:06:52.225Z,24.75
2022-08-20T14:07:53.720Z,25.08
2022-08-20T14:08:51.574Z,25.34
2022-08-20T14:09:51.606Z,25.53
2022-08-20T14:10:51.933Z,25.63
2022-08-20T14:11:51.580Z,25.59
2022-08-20T14:12:51.544Z,25.64
2022-08-20T14:13:51.538Z,25.59
2022-08-20T14:14:51.541Z,25.61
2022-08-20T14:15:51.763Z,25.69
2022-08-20T14:16:51.501Z,25.59
2022-08-20T14:17:52.609Z,25.57
2022-08-20T14:18:52.963Z,25.26
2022-08-20T14:19:51.496Z,25.05
2022-08-20T14:20:51.489Z,25.09
2022-08-20T14:21:52.489Z,25.24
2022-08-20T14:22:51.495Z,25.63
2022-08-20T14:23:52.237Z,25.83
2022-08-20T14:24:58.230Z,25.76
2022-08-20T14:25:51.441Z,25.53
2022-08-20T14:26:51.401Z,25.08
2022-08-20T14:27:51.396Z,24.64
2022-08-20T14:28:54.742Z,24.60
2022-08-20T14:29:51.367Z,24.87
2022-08-20T14:30:53.164Z,24.92
2022-08-20T14:31:52.227Z,24.84
2022-08-20T14:32:52.227Z,24.68
2022-08-20T14:33:52.231Z,24.87
2022-08-20T14:34:51.343Z,24.66
2022-08-20T14:35:51.305Z,24.63
2022-08-20T14:36:52.241Z,24.67
2022-08-20T14:37:51.283Z,24.59
2022-08-20T14:38:52.841Z,24.67
2022-08-20T14:39:51.339Z,24.83
2022-08-20T14:40:51.247Z,24.80
2022-08-20T14:41:51.246Z,24.83
2022-08-20T14:42:52.414Z,24.94
2022-08-20T14:43:51.263Z,25.09
2022-08-20T14:44:51.280Z,24.94
2022-08-20T14:45:51.197Z,24.90
2022-08-20T14:46:51.190Z,24.61
2022-08-20T14:47:53.767Z,24.45
2022-08-20T14:48:53.303Z,24.59
2022-08-20T14:49:51.184Z,24.59
2022-08-20T14:50:51.743Z,24.61
2022-08-20T14:51:51.136Z,24.63
2022-08-20T14:52:51.150Z,24.60
2022-08-20T14:53:51.110Z,24.63
2022-08-20T14:54:51.127Z,24.64
2022-08-20T14:55:51.739Z,24.63
2022-08-20T14:56:51.079Z,24.74
2022-08-20T14:57:51.061Z,24.80
2022-08-20T14:58:51.072Z,24.66
2022-08-20T14:59:51.071Z,24.67
2022-08-20T15:00:51.049Z,24.64
2022-08-20T15:01:51.028Z,24.98
2022-08-20T15:02:51.273Z,25.34
2022-08-20T15:03:51.736Z,25.66
2022-08-20T15:04:53.883Z,25.76
2022-08-20T15:05:51.013Z,25.78
2022-08-20T15:06:50.973Z,25.78
2022-08-20T15:07:51.734Z,25.69
2022-08-20T15:08:51.747Z,25.60
2022-08-20T15:09:52.289Z,25.39
2022-08-20T15:10:50.945Z,25.17
2022-08-20T15:11:50.921Z,25.26
2022-08-20T15:12:51.739Z,25.07
2022-08-20T15:13:50.927Z,25.09
2022-08-20T15:14:53.744Z,25.05
2022-08-20T15:15:51.745Z,25.08
2022-08-20T15:16:50.867Z,25.07
2022-08-20T15:17:50.861Z,25.11
2022-08-20T15:18:50.863Z,25.09
2022-08-20T15:19:54.745Z,25.05
2022-08-20T15:20:50.823Z,24.82
2022-08-20T15:21:50.860Z,24.68
2022-08-20T15:22:51.741Z,24.74
2022-08-20T15:23:52.796Z,24.64
2022-08-20T15:24:51.490Z,24.52
2022-08-20T15:25:51.771Z,24.51
2022-08-20T15:26:50.754Z,24.48
2022-08-20T15:27:50.755Z,24.33
2022-08-20T15:28:50.767Z,24.37
2022-08-20T15:29:50.735Z,24.26
2022-08-20T15:30:50.773Z,24.41
2022-08-20T15:31:50.733Z,24.51
2022-08-20T15:32:54.886Z,24.52
2022-08-20T15:33:50.713Z,24.71
2022-08-20T15:34:50.677Z,24.64
2022-08-20T15:35:50.689Z,24.83
2022-08-20T15:36:57.249Z,24.75
2022-08-20T15:37:50.642Z,24.79
2022-08-20T15:38:50.651Z,24.63
2022-08-20T15:39:50.677Z,24.56
2022-08-20T15:40:54.318Z,24.64
2022-08-20T15:41:51.244Z,24.75
2022-08-20T15:42:53.328Z,24.79
2022-08-20T15:43:50.597Z,24.86
2022-08-20T15:44:50.592Z,24.77
2022-08-20T15:45:50.559Z,24.80
2022-08-20T15:46:50.554Z,24.79
2022-08-20T15:47:50.521Z,24.75
2022-08-20T15:48:50.556Z,24.61
2022-08-20T15:49:50.589Z,24.66
2022-08-20T15:50:51.561Z,24.63
2022-08-20T15:51:50.491Z,24.66
2022-08-20T15:52:51.304Z,24.97
2022-08-20T15:53:50.471Z,25.01
2022-08-20T15:54:55.131Z,24.94
2022-08-20T15:55:51.468Z,24.86
2022-08-20T15:56:50.462Z,24.74
2022-08-20T15:57:50.432Z,24.83
2022-08-20T15:58:50.441Z,24.79
2022-08-20T15:59:50.428Z,24.97
2022-08-20T16:00:50.434Z,25.04
2022-08-20T16:01:50.447Z,25.19
2022-08-20T16:02:50.404Z,25.30
2022-08-20T16:03:50.368Z,25.41
2022-08-20T16:04:50.360Z,25.48
2022-08-20T16:05:50.361Z,25.39
2022-08-20T16:06:50.341Z,25.29
2022-08-20T16:07:50.323Z,25.08
2022-08-20T16:08:50.318Z,25.07
2022-08-20T16:09:50.304Z,25.05
2022-08-20T16:10:50.297Z,25.17
2022-08-20T16:11:50.305Z,25.16
2022-08-20T16:12:50.316Z,25.17
2022-08-20T16:13:50.254Z,25.08
2022-08-20T16:14:50.260Z,25.05
2022-08-20T16:15:50.242Z,25.22
2022-08-20T16:16:50.229Z,25.39
2022-08-20T16:17:52.345Z,25.46
2022-08-20T16:18:50.203Z,25.23
2022-08-20T16:19:50.208Z,25.05
2022-08-20T16:20:50.183Z,25.09
2022-08-20T16:21:50.176Z,24.99
2022-08-20T16:22:50.266Z,24.87
2022-08-20T16:23:50.184Z,24.77
2022-08-20T16:24:50.153Z,24.70
2022-08-20T16:25:50.769Z,24.66
2022-08-20T16:26:50.118Z,24.87
2022-08-20T16:27:50.107Z,24.82
2022-08-20T16:28:50.096Z,24.77
2022-08-20T16:29:53.274Z,24.61
2022-08-20T16:30:50.089Z,24.61
2022-08-20T16:31:50.078Z,24.56
2022-08-20T16:32:50.287Z,24.51
2022-08-20T16:33:50.064Z,24.42
2022-08-20T16:34:50.759Z,24.27
2022-08-20T16:35:51.079Z,24.31
2022-08-20T16:37:03.644Z,24.36
2022-08-20T16:37:51.007Z,24.29
2022-08-20T16:38:50.022Z,24.24
2022-08-20T16:39:50.155Z,24.24
2022-08-20T16:40:52.763Z,24.18
2022-08-20T16:41:49.959Z,24.23
2022-08-20T16:42:49.960Z,24.12
2022-08-20T16:43:49.944Z,24.21
2022-08-20T16:44:49.927Z,24.08
2022-08-20T16:45:51.256Z,24.18
2022-08-20T16:46:49.915Z,24.16
2022-08-20T16:47:49.905Z,24.23
2022-08-20T16:48:50.760Z,24.19
2022-08-20T16:49:49.901Z,24.08
2022-08-20T16:50:49.877Z,24.06
2022-08-20T16:51:52.016Z,23.97
2022-08-20T16:52:50.858Z,24.15
2022-08-20T16:53:50.766Z,24.27
2022-08-20T16:54:49.842Z,24.29
2022-08-20T16:55:49.821Z,24.37
2022-08-20T16:56:49.800Z,24.42
2022-08-20T16:57:50.770Z,24.26
2022-08-20T16:58:49.777Z,24.26
2022-08-20T16:59:50.266Z,24.29
2022-08-20T17:00:49.803Z,24.37
2022-08-20T17:01:50.271Z,24.27
2022-08-20T17:02:50.354Z,24.24
2022-08-20T17:03:50.775Z,24.21
2022-08-20T17:04:58.679Z,24.21
2022-08-20T17:05:50.704Z,24.11
2022-08-20T17:06:49.691Z,24.06
2022-08-20T17:07:51.368Z,24.04
2022-08-20T17:08:49.912Z,24.00
2022-08-20T17:09:49.667Z,24.00
2022-08-20T17:10:50.671Z,24.00
2022-08-20T17:11:49.655Z,24.06
2022-08-20T17:12:50.339Z,24.08
2022-08-20T17:13:49.599Z,24.09
2022-08-20T17:14:50.668Z,24.06
2022-08-20T17:15:50.265Z,24.12
2022-08-20T17:16:49.589Z,24.14
2022-08-20T17:17:49.559Z,24.12
2022-08-20T17:18:49.550Z,24.14
2022-08-20T17:19:49.540Z,24.18
2022-08-20T17:20:54.790Z,24.14
2022-08-20T17:21:49.843Z,24.19
2022-08-20T17:22:49.530Z,24.24
2022-08-20T17:23:56.467Z,24.26
2022-08-20T17:24:50.484Z,24.21
2022-08-20T17:25:49.472Z,24.18
2022-08-20T17:26:49.480Z,24.11
2022-08-20T17:27:49.447Z,24.06
2022-08-20T17:28:49.446Z,24.11
2022-08-20T17:29:50.271Z,24.05
2022-08-20T17:30:50.488Z,24.09
2022-08-20T17:31:49.406Z,24.14
2022-08-20T17:32:49.402Z,24.21
2022-08-20T17:33:50.383Z,24.33
2022-08-20T17:34:49.373Z,24.34
2022-08-20T17:35:49.371Z,24.36
2022-08-20T17:36:50.405Z,24.31
2022-08-20T17:37:49.338Z,24.42
2022-08-20T17:38:49.329Z,24.41
2022-08-20T17:39:49.359Z,24.31
2022-08-20T17:40:49.353Z,24.42
2022-08-20T17:41:49.299Z,24.24
2022-08-20T17:42:49.300Z,24.18
2022-08-20T17:43:50.828Z,24.14
2022-08-20T17:44:49.259Z,24.15
2022-08-20T17:45:49.244Z,24.08
2022-08-20T17:46:51.795Z,24.08
2022-08-20T17:47:49.300Z,24.14
2022-08-20T17:48:49.217Z,24.09
2022-08-20T17:50:01.189Z,24.04
2022-08-20T17:50:50.215Z,24.08
2022-08-20T17:51:49.176Z,24.05
2022-08-20T17:52:50.277Z,23.99
2022-08-20T17:53:49.778Z,23.99
2022-08-20T17:54:49.162Z,23.93
2022-08-20T17:55:51.789Z,23.84
2022-08-20T17:56:49.157Z,23.81
2022-08-20T17:57:49.112Z,23.74
2022-08-20T17:58:54.136Z,23.75
2022-08-20T18:00:01.193Z,23.67
2022-08-20T18:00:50.112Z,23.60
2022-08-20T18:01:49.178Z,23.64
2022-08-20T18:02:50.190Z,23.57
2022-08-20T18:03:49.076Z,23.53
2022-08-20T18:04:49.785Z,23.56
2022-08-20T18:05:49.039Z,23.50
2022-08-20T18:06:51.114Z,23.50
2022-08-20T18:07:49.034Z,23.47
2022-08-20T18:08:51.783Z,23.47
2022-08-20T18:09:49.776Z,23.45
2022-08-20T18:10:50.287Z,23.42
2022-08-20T18:11:48.970Z,23.41
2022-08-20T18:12:48.970Z,23.41
2022-08-20T18:13:48.949Z,23.44
2022-08-20T18:14:48.942Z,23.35
2022-08-20T18:15:48.931Z,23.29
2022-08-20T18:16:49.816Z,23.37
2022-08-20T18:17:48.911Z,23.21
2022-08-20T18:18:56.512Z,23.25
2022-08-20T18:19:49.892Z,23.21
2022-08-20T18:20:48.902Z,23.22
2022-08-20T18:21:50.830Z,23.22
2022-08-20T18:22:49.810Z,23.22
2022-08-20T18:23:49.867Z,23.19
2022-08-20T18:24:51.779Z,23.22
2022-08-20T18:25:48.846Z,23.16
2022-08-20T18:26:49.886Z,23.18
2022-08-20T18:27:49.819Z,23.07
2022-08-20T18:28:48.800Z,23.01
2022-08-20T18:29:48.782Z,22.93
2022-08-20T18:30:48.785Z,22.96
2022-08-20T18:31:48.781Z,22.94
2022-08-20T18:32:49.296Z,22.85
2022-08-20T18:33:48.741Z,22.79
2022-08-20T18:34:49.284Z,22.82
2022-08-20T18:35:48.722Z,22.75
2022-08-20T18:36:48.813Z,22.74
2022-08-20T18:37:51.290Z,22.72
2022-08-20T18:38:49.281Z,22.66
2022-08-20T18:39:51.345Z,22.64
2022-08-20T18:40:53.130Z,22.67
2022-08-20T18:41:49.698Z,22.64
2022-08-20T18:42:48.829Z,22.60
2022-08-20T18:43:48.650Z,22.60
2022-08-20T18:44:49.284Z,22.61
2022-08-20T18:45:48.617Z,22.57
2022-08-20T18:46:48.603Z,22.57
2022-08-20T18:47:48.596Z,22.56
2022-08-20T18:48:48.609Z,22.57
2022-08-20T18:49:48.570Z,22.60
2022-08-20T18:50:49.577Z,22.59
2022-08-20T18:51:51.284Z,22.57
2022-08-20T18:52:48.822Z,22.52
2022-08-20T18:53:51.855Z,22.59
2022-08-20T18:54:48.856Z,22.59
2022-08-20T18:55:48.508Z,22.57
2022-08-20T18:56:51.370Z,22.60
2022-08-20T18:57:51.292Z,22.57
2022-08-20T18:58:48.482Z,22.57
2022-08-20T18:59:48.472Z,22.60
2022-08-20T19:00:48.485Z,22.51
2022-08-20T19:01:48.504Z,22.61
2022-08-20T19:02:55.374Z,22.59
2022-08-20T19:03:48.451Z,22.59
2022-08-20T19:04:49.450Z,22.51
2022-08-20T19:05:48.402Z,22.48
2022-08-20T19:06:49.304Z,22.49
2022-08-20T19:07:49.305Z,22.48
2022-08-20T19:08:48.375Z,22.52
2022-08-20T19:09:48.376Z,22.51
2022-08-20T19:10:48.374Z,22.51
2022-08-20T19:11:48.332Z,22.45
2022-08-20T19:12:48.350Z,22.41
2022-08-20T19:13:49.292Z,22.44
2022-08-20T19:14:48.311Z,22.38
2022-08-20T19:15:48.293Z,22.31
2022-08-20T19:16:48.337Z,22.31
2022-08-20T19:17:48.276Z,22.33
2022-08-20T19:18:48.271Z,22.31
2022-08-20T19:19:48.790Z,22.33
2022-08-20T19:20:50.304Z,22.31
2022-08-20T19:21:48.244Z,22.30
2022-08-20T19:22:48.237Z,22.19
2022-08-20T19:23:48.223Z,22.17
2022-08-20T19:24:48.207Z,22.02
2022-08-20T19:25:50.797Z,22.08
2022-08-20T19:26:48.186Z,21.99
2022-08-20T19:27:48.156Z,21.93
2022-08-20T19:28:48.331Z,21.94
2022-08-20T19:29:48.140Z,21.81
2022-08-20T19:30:48.804Z,21.85
2022-08-20T19:31:48.113Z,21.82
2022-08-20T19:32:51.399Z,21.75
2022-08-20T19:33:48.126Z,21.86
2022-08-20T19:34:48.086Z,21.82
2022-08-20T19:35:48.069Z,21.79
2022-08-20T19:36:48.066Z,21.81
2022-08-20T19:37:51.160Z,21.89
2022-08-20T19:38:48.050Z,21.89
2022-08-20T19:39:48.070Z,21.86
2022-08-20T19:40:48.033Z,21.86
2022-08-20T19:41:48.816Z,21.86
2022-08-20T19:42:48.804Z,21.81
2022-08-20T19:43:48.001Z,21.83
2022-08-20T19:44:47.992Z,21.77
2022-08-20T19:45:48.003Z,21.79
2022-08-20T19:46:48.815Z,21.79
2022-08-20T19:47:48.814Z,21.73
2022-08-20T19:48:47.931Z,21.64
2022-08-20T19:49:47.922Z,21.56
2022-08-20T19:50:47.911Z,21.58
2022-08-20T19:51:48.255Z,21.58
2022-08-20T19:52:47.888Z,21.51
2022-08-20T19:53:47.894Z,21.51
2022-08-20T19:54:47.870Z,21.46
2022-08-20T19:55:48.841Z,21.37
2022-08-20T19:56:48.798Z,21.33
2022-08-20T19:57:47.838Z,21.40
2022-08-20T19:58:47.823Z,21.30
2022-08-20T19:59:47.816Z,21.19
2022-08-20T20:00:48.314Z,21.28
2022-08-20T20:01:47.907Z,21.21
2022-08-20T20:02:54.346Z,21.26
2022-08-20T20:03:47.762Z,21.26
2022-08-20T20:04:55.641Z,21.18
2022-08-20T20:05:48.775Z,21.27
2022-08-20T20:06:47.731Z,21.24
2022-08-20T20:07:47.846Z,21.33
2022-08-20T20:08:48.299Z,21.26
2022-08-20T20:09:47.711Z,21.24
2022-08-20T20:10:47.694Z,21.19
2022-08-20T20:11:47.681Z,21.13
2022-08-20T20:12:50.388Z,21.08
2022-08-20T20:13:47.682Z,21.06
2022-08-20T20:14:47.667Z,20.97
2022-08-20T20:15:48.311Z,20.94